.
WxDataArchive / Data Records for 2013-06-30
2013-06-29 June 2013 2013-07-01

Data Records for Sunday, 30 June 2013

Time	Temp	Chill	HIndex	Humid	Dewpt	 Wind 	HiWind	WindDir	Rain 	Barom 
-----	----	-----	------	-----	-----	------	------	-------	-----	----- 
00:00	66.0	66.0	66.0	91	63.3	0	3	135	0.00	29.674 
00:05	66.0	66.0	66.0	91	63.3	1	3	112	0.00	29.674 
00:10	66.0	66.0	66.0	91	63.3	1	2	112	0.00	29.674 
00:15	66.0	66.0	66.0	91	63.3	1	5	112	0.00	29.679 
00:20	66.0	66.0	66.0	90	63.0	2	4	90	0.00	29.679 
00:25	65.8	65.8	65.8	90	62.8	3	9	90	0.00	29.679 
00:30	65.6	65.6	65.6	89	62.3	2	6	90	0.00	29.684 
00:35	65.5	65.5	65.5	89	62.2	2	6	112	0.00	29.684 
00:40	65.5	65.5	65.5	89	62.2	3	6	112	0.00	29.684 
00:45	65.3	65.3	65.3	89	62.0	2	6	90	0.00	29.687 
00:50	65.2	65.2	65.2	90	62.2	1	5	90	0.02	29.687 
00:55	65.0	65.0	65.0	91	62.3	2	6	90	0.06	29.687 
01:00	64.5	64.5	64.5	91	61.8	2	7	90	0.06	29.687 
01:05	64.2	64.2	64.2	92	61.8	3	6	90	0.00	29.687 
01:10	64.0	64.0	64.0	92	61.6	2	7	90	0.01	29.687 
01:15	63.9	63.9	63.9	93	61.8	2	5	90	0.04	29.691 
01:20	63.7	63.7	63.7	93	61.6	2	6	90	0.02	29.691 
01:25	63.5	63.5	63.5	93	61.4	2	6	112	0.01	29.691 
01:30	63.4	63.4	63.4	93	61.3	2	5	90	0.00	29.696 
01:35	63.4	63.4	63.4	94	61.6	1	3	90	0.00	29.696 
01:40	63.4	63.4	63.4	94	61.6	1	3	90	0.00	29.696 
01:45	63.4	63.4	63.4	94	61.6	0	1	90	0.01	29.699 
01:50	63.4	63.4	63.4	94	61.6	1	4	90	0.01	29.699 
01:55	63.4	63.4	63.4	94	61.6	0	2	90	0.01	29.699 
02:00	63.4	63.4	63.4	94	61.6	0	2	90	0.01	29.703 
02:05	63.4	63.4	63.4	94	61.6	0	1	90	0.00	29.703 
02:10	63.4	63.4	63.4	94	61.6	0	2	90	0.00	29.703 
02:15	63.4	63.4	63.4	94	61.6	0	2	90	0.00	29.707 
02:20	63.2	63.2	63.2	94	61.4	0	2	90	0.00	29.707 
02:25	63.2	63.2	63.2	94	61.4	0	3	158	0.00	29.707 
02:30	63.2	63.2	63.2	94	61.4	0	2	68	0.00	29.704 
02:35	63.1	63.1	63.1	94	61.3	0	2	68	0.00	29.704 
02:40	63.1	63.1	63.1	94	61.3	0	0	---	0.00	29.704 
02:45	63.1	63.1	63.1	95	61.6	0	1	68	0.00	29.702 
02:50	62.9	62.9	62.9	94	61.1	0	3	68	0.00	29.702 
02:55	62.7	62.7	62.7	94	60.9	0	1	68	0.00	29.702 
03:00	62.6	62.6	62.6	94	60.8	0	2	68	0.00	29.704 
03:05	62.6	62.6	62.6	94	60.8	0	1	68	0.00	29.704 
03:10	62.4	62.4	62.4	94	60.6	0	2	68	0.00	29.704 
03:15	62.3	62.3	62.3	94	60.5	0	2	68	0.00	29.704 
03:20	62.1	62.1	62.1	94	60.3	0	2	68	0.00	29.704 
03:25	62.1	62.1	62.1	94	60.3	0	2	68	0.00	29.704 
03:30	62.0	62.0	62.0	94	60.2	0	0	---	0.00	29.702 
03:35	61.8	61.8	61.8	94	60.1	0	4	135	0.00	29.702 
03:40	61.6	61.6	61.6	94	59.9	0	2	135	0.00	29.702 
03:45	61.5	61.5	61.5	94	59.8	0	1	135	0.00	29.702 
03:50	61.5	61.5	61.5	94	59.8	0	0	---	0.00	29.702 
03:55	61.5	61.5	61.5	94	59.8	0	0	---	0.00	29.702 
04:00	61.3	61.3	61.3	94	59.6	0	1	135	0.00	29.708 
04:05	61.3	61.3	61.3	94	59.6	0	0	---	0.00	29.708 
04:10	61.3	61.3	61.3	94	59.6	0	1	135	0.00	29.708 
04:15	61.3	61.3	61.3	94	59.6	0	3	135	0.00	29.708 
04:20	61.5	61.5	61.5	94	59.8	0	1	135	0.00	29.708 
04:25	61.6	61.6	61.6	94	59.9	0	1	135	0.00	29.708 
04:30	61.8	61.8	61.8	94	60.1	0	2	135	0.00	29.706 
04:35	62.0	62.0	62.0	94	60.2	0	1	135	0.00	29.706 
04:40	62.1	62.1	62.1	94	60.3	0	0	---	0.00	29.706 
04:45	62.3	62.3	62.3	94	60.5	0	3	135	0.00	29.707 
04:50	62.3	62.3	62.3	94	60.5	0	1	135	0.00	29.707 
04:55	62.4	62.4	62.4	94	60.6	0	2	135	0.00	29.707 
05:00	62.4	62.4	62.4	94	60.6	0	2	135	0.00	29.715 
05:05	62.6	62.6	62.6	94	60.8	0	2	135	0.00	29.715 
05:10	62.6	62.6	62.6	94	60.8	0	2	135	0.00	29.715 
05:15	62.6	62.6	62.6	94	60.8	0	3	135	0.00	29.717 
05:20	62.6	62.6	62.6	94	60.8	0	2	135	0.00	29.717 
05:25	62.6	62.6	62.6	94	60.8	0	2	135	0.00	29.717 
05:30	62.6	62.6	62.6	94	60.8	0	4	135	0.00	29.719 
05:35	62.6	62.6	62.6	94	60.8	0	3	135	0.00	29.719 
05:40	62.6	62.6	62.6	94	60.8	1	3	135	0.00	29.719 
05:45	62.6	62.6	62.6	94	60.8	0	4	180	0.00	29.721 
05:50	62.4	62.4	62.4	93	60.3	0	1	248	0.00	29.721 
05:55	62.4	62.4	62.4	93	60.3	1	5	90	0.00	29.721 
06:00	62.3	62.3	62.3	93	60.2	2	4	90	0.00	29.722 
06:05	62.3	62.3	62.3	93	60.2	1	3	112	0.01	29.722 
06:10	62.3	62.3	62.3	92	59.9	0	3	112	0.01	29.722 
06:15	62.1	62.1	62.1	92	59.7	1	3	112	0.01	29.727 
06:20	62.1	62.1	62.1	92	59.7	0	2	112	0.01	29.727 
06:25	62.0	62.0	62.0	93	59.9	0	3	90	0.01	29.727 
06:30	62.0	62.0	62.0	93	59.9	0	1	90	0.00	29.738 
06:35	62.0	62.0	62.0	93	59.9	0	3	135	0.01	29.738 
06:40	62.0	62.0	62.0	93	59.9	1	5	90	0.00	29.738 
06:45	62.0	62.0	62.0	93	59.9	0	2	90	0.00	29.740 
06:50	62.0	62.0	62.0	93	59.9	0	1	90	0.00	29.740 
06:55	62.0	62.0	62.0	93	59.9	0	2	90	0.01	29.740 
07:00	61.8	61.8	61.8	93	59.8	0	2	90	0.00	29.741 
07:05	62.0	62.0	62.0	94	60.2	0	1	90	0.00	29.741 
07:10	62.0	62.0	62.0	94	60.2	0	2	90	0.00	29.741 
07:15	62.0	62.0	62.0	94	60.2	0	1	90	0.00	29.743 
07:20	62.0	62.0	62.0	94	60.2	0	1	90	0.00	29.743 
07:25	62.0	62.0	62.0	94	60.2	0	4	112	0.00	29.743 
07:30	62.0	62.0	62.0	94	60.2	0	3	68	0.00	29.747 
07:35	62.0	62.0	62.0	94	60.2	0	2	68	0.00	29.747 
07:40	62.1	62.1	62.1	94	60.3	0	3	68	0.00	29.747 
07:45	62.1	62.1	62.1	94	60.3	0	3	68	0.00	29.752 
07:50	62.1	62.1	62.1	93	60.0	0	2	90	0.00	29.752 
07:55	62.3	62.3	62.3	94	60.5	0	3	90	0.00	29.752 
08:00	62.4	62.4	62.4	93	60.3	1	4	90	0.00	29.755 
08:05	62.4	62.4	62.4	93	60.3	1	5	112	0.00	29.755 
08:10	62.6	62.6	62.6	93	60.5	0	3	158	0.00	29.755 
08:15	62.7	62.7	62.7	93	60.6	0	3	135	0.00	29.756 
08:20	62.7	62.7	62.7	93	60.6	1	4	45	0.00	29.756 
08:25	62.9	62.9	62.9	93	60.8	1	3	90	0.00	29.756 
08:30	62.9	62.9	62.9	92	60.5	1	4	135	0.00	29.759 
08:35	62.9	62.9	62.9	92	60.5	0	2	135	0.00	29.759 
08:40	63.1	63.1	63.1	92	60.7	0	2	135	0.00	29.759 
08:45	63.2	63.2	63.2	92	60.8	1	4	135	0.00	29.764 
08:50	63.2	63.2	63.2	92	60.8	0	3	112	0.00	29.764 
08:55	63.4	63.4	63.4	92	61.0	1	5	112	0.00	29.764 
09:00	63.5	63.5	63.5	92	61.1	1	4	68	0.00	29.769 
09:05	63.9	63.9	63.9	92	61.5	1	5	135	0.00	29.769 
09:10	64.0	64.0	64.0	91	61.3	1	3	135	0.00	29.769 
09:15	64.2	64.2	64.2	90	61.2	1	3	90	0.00	29.774 
09:20	64.2	64.2	64.2	90	61.2	2	5	112	0.00	29.774 
09:25	64.3	64.3	64.3	89	61.0	1	4	112	0.00	29.774 
09:30	64.5	64.5	64.5	89	61.2	1	4	112	0.00	29.777 
09:35	64.7	64.7	64.7	89	61.4	1	4	112	0.00	29.777 
09:40	64.7	64.7	64.7	88	61.1	1	7	112	0.00	29.777 
09:45	64.8	64.8	64.8	88	61.2	1	3	90	0.00	29.782 
09:50	65.0	65.0	65.0	88	61.4	0	3	90	0.00	29.782 
09:55	65.0	65.0	65.0	87	61.0	1	4	90	0.00	29.782 
10:00	65.2	65.2	65.2	87	61.2	1	3	90	0.00	29.787 
10:05	65.2	65.2	65.2	87	61.2	1	4	90	0.00	29.787 
10:10	65.3	65.3	65.3	86	61.0	1	4	90	0.00	29.787 
10:15	65.5	65.5	65.5	84	60.5	2	5	112	0.00	29.790 
10:20	65.6	65.6	65.6	84	60.6	1	3	112	0.00	29.790 
10:25	65.8	65.8	65.8	84	60.8	2	5	112	0.00	29.790 
10:30	66.0	66.0	66.0	83	60.7	2	6	112	0.00	29.804 
10:35	66.0	66.0	66.0	83	60.7	2	5	90	0.00	29.804 
10:40	66.0	66.0	66.0	83	60.7	1	7	90	0.00	29.804 
10:45	66.0	66.0	66.0	82	60.3	3	6	90	0.00	29.812 
10:50	66.0	66.0	66.0	83	60.7	2	6	90	0.00	29.812 
10:55	66.1	66.1	66.1	83	60.8	2	5	90	0.00	29.812 
11:00	66.1	66.1	66.1	83	60.8	2	7	112	0.00	29.815 
11:05	66.3	66.3	66.3	83	61.0	1	4	112	0.00	29.815 
11:10	66.4	66.4	66.4	83	61.1	2	4	112	0.00	29.815 
11:15	66.8	66.8	66.8	82	61.1	1	5	112	0.00	29.812 
11:20	66.9	66.9	66.9	83	61.6	1	3	112	0.00	29.812 
11:25	67.1	67.1	67.1	82	61.4	2	4	112	0.00	29.812 
11:30	67.1	67.1	67.1	82	61.4	1	4	135	0.00	29.803 
11:35	66.9	66.9	66.9	81	60.9	2	6	112	0.00	29.803 
11:40	67.1	67.1	67.1	81	61.1	1	3	90	0.00	29.803 
11:45	67.1	67.1	67.1	81	61.1	0	3	90	0.00	29.806 
11:50	67.3	67.3	67.3	81	61.3	1	3	135	0.00	29.806 
11:55	67.3	67.3	67.3	81	61.3	1	3	112	0.00	29.806 
12:00	67.3	67.3	67.3	80	60.9	2	5	112	0.00	29.813 
12:05	67.3	67.3	67.3	79	60.6	2	6	90	0.00	29.813 
12:10	67.3	67.3	67.3	77	59.8	3	11	90	0.00	29.813 
12:15	67.3	67.3	67.3	75	59.1	3	7	90	0.00	29.817 
12:20	67.4	67.4	67.4	74	58.8	3	11	68	0.00	29.817 
12:25	67.6	67.6	67.6	74	59.0	3	6	112	0.00	29.817 
12:30	67.6	67.6	67.6	75	59.4	3	6	90	0.00	29.820 
12:35	67.6	67.6	67.6	75	59.4	4	10	90	0.00	29.820 
12:40	67.4	67.4	67.4	78	60.3	2	5	90	0.00	29.820 
12:45	66.8	66.8	66.8	81	60.8	2	4	90	0.01	29.820 
12:50	66.4	66.4	66.4	84	61.4	1	3	90	0.01	29.820 
12:55	66.1	66.1	66.1	86	61.8	1	3	90	0.00	29.820 
13:00	66.0	66.0	66.0	87	62.0	1	3	90	0.01	29.823 
13:05	66.1	66.1	66.1	88	62.4	2	5	90	0.00	29.823 
13:10	66.0	66.0	66.0	88	62.3	2	4	90	0.00	29.823 
13:15	66.0	66.0	66.0	88	62.3	2	5	90	0.01	29.827 
13:20	66.1	66.1	66.1	89	62.8	1	4	90	0.00	29.827 
13:25	66.3	66.3	66.3	89	63.0	1	5	112	0.01	29.827 
13:30	66.4	66.4	66.4	90	63.4	2	4	90	0.00	29.827 
13:35	66.4	66.4	66.4	90	63.4	2	5	112	0.00	29.827 
13:40	66.6	66.6	66.6	90	63.6	1	5	90	0.00	29.827 
13:45	66.6	66.6	66.6	90	63.6	1	3	90	0.00	29.826 
13:50	66.4	66.4	66.4	90	63.4	1	4	90	0.00	29.826 
13:55	66.1	66.1	66.1	90	63.1	1	4	90	0.00	29.826 
14:00	66.0	66.0	66.0	89	62.7	1	3	45	0.00	29.836 
14:05	66.0	66.0	66.0	90	63.0	1	3	45	0.00	29.836 
14:10	66.1	66.1	66.1	89	62.8	1	5	112	0.00	29.836 
14:15	66.0	66.0	66.0	88	62.3	1	3	112	0.00	29.835 
14:20	66.1	66.1	66.1	88	62.4	1	4	112	0.00	29.835 
14:25	66.1	66.1	66.1	88	62.4	1	4	112	0.00	29.835 
14:30	66.4	66.4	66.4	88	62.7	0	2	112	0.00	29.833 
14:35	66.4	66.4	66.4	87	62.4	1	3	112	0.00	29.833 
14:40	66.6	66.6	66.6	87	62.6	1	3	112	0.00	29.833 
14:45	66.6	66.6	66.6	86	62.3	1	3	112	0.00	29.831 
14:50	66.4	66.4	66.4	85	61.7	1	3	135	0.00	29.831 
14:55	66.6	66.6	66.6	85	61.9	0	4	135	0.00	29.831 
15:00	66.6	66.6	66.6	85	61.9	0	4	135	0.00	29.828 
15:05	66.6	66.6	66.6	84	61.6	1	2	135	0.00	29.828 
15:10	66.8	66.8	66.8	83	61.5	1	4	112	0.00	29.828 
15:15	66.9	66.9	66.9	83	61.6	0	2	112	0.00	29.827 
15:20	67.1	67.1	67.1	82	61.4	0	3	112	0.00	29.827 
15:25	67.3	67.3	67.3	82	61.6	0	1	202	0.00	29.827 
15:30	67.3	67.3	67.3	81	61.3	1	3	135	0.00	29.829 
15:35	67.3	67.3	67.3	80	60.9	1	4	90	0.00	29.829 
15:40	67.3	67.3	67.3	80	60.9	1	4	90	0.00	29.829 
15:45	67.6	67.6	67.6	81	61.6	1	3	90	0.00	29.828 
15:50	67.9	67.9	67.9	80	61.5	1	2	90	0.00	29.828 
15:55	68.1	68.1	68.1	79	61.3	0	1	90	0.00	29.828 
16:00	68.4	68.4	68.4	78	61.3	1	3	90	0.00	29.827 
16:05	68.6	68.6	68.6	78	61.5	1	3	112	0.00	29.827 
16:10	68.9	68.9	68.9	78	61.7	1	4	112	0.00	29.827 
16:15	69.1	69.1	69.1	77	61.6	0	3	135	0.00	29.829 
16:20	69.6	69.6	69.6	77	62.1	1	4	135	0.00	29.829 
16:25	70.3	70.3	70.3	77	62.7	1	3	112	0.00	29.829 
16:30	70.9	70.9	70.9	76	62.9	2	6	90	0.00	29.830 
16:35	71.6	71.6	71.6	74	62.9	1	4	158	0.00	29.830 
16:40	71.8	71.8	71.8	72	62.3	1	6	90	0.00	29.830 
16:45	71.8	71.8	71.8	73	62.7	1	4	90	0.00	29.825 
16:50	72.0	72.0	72.0	73	62.9	1	5	90	0.00	29.825 
16:55	72.1	72.1	72.1	73	63.0	1	4	90	0.00	29.825 
17:00	72.5	72.5	72.5	71	62.5	2	4	90	0.00	29.831 
17:05	72.5	72.5	72.5	70	62.1	2	6	90	0.00	29.831 
17:10	72.5	72.5	72.5	69	61.7	2	6	90	0.00	29.831 
17:15	72.7	72.7	72.7	70	62.3	1	4	90	0.00	29.831 
17:20	73.0	73.0	73.0	71	63.0	2	5	90	0.00	29.831 
17:25	73.5	73.5	73.5	69	62.7	3	7	90	0.00	29.831 
17:30	74.0	74.0	74.0	69	63.2	2	5	112	0.00	29.831 
17:35	74.0	74.0	74.0	67	62.3	1	5	112	0.00	29.831 
17:40	74.2	74.2	74.2	66	62.1	2	5	90	0.00	29.831 
17:45	74.4	74.4	74.4	67	62.7	1	5	68	0.00	29.830 
17:50	74.7	74.7	74.7	68	63.4	2	5	90	0.00	29.830 
17:55	75.1	75.1	77.1	66	62.9	2	5	112	0.00	29.830 
18:00	75.3	75.3	77.4	64	62.3	2	5	90	0.00	29.826 
18:05	75.4	75.4	77.3	67	63.7	2	5	90	0.00	29.826 
18:10	75.4	75.4	77.4	65	62.8	2	5	90	0.00	29.826 
18:15	75.4	75.4	77.4	65	62.8	2	5	112	0.00	29.824 
18:20	75.4	75.4	77.4	64	62.4	2	7	90	0.00	29.824 
18:25	75.4	75.4	77.4	65	62.8	2	4	90	0.00	29.824 
18:30	75.3	75.3	77.3	65	62.7	2	7	90	0.00	29.824 
18:35	74.9	74.9	74.9	64	61.9	2	7	90	0.00	29.824 
18:40	74.6	74.6	74.6	65	62.0	2	6	90	0.00	29.824 
18:45	74.2	74.2	74.2	67	62.5	2	7	90	0.00	29.830 
18:50	74.0	74.0	74.0	65	61.5	2	5	90	0.00	29.830 
18:55	73.9	73.9	73.9	66	61.8	1	4	112	0.00	29.830 
19:00	73.9	73.9	73.9	66	61.8	2	5	112	0.00	29.830 
19:05	74.0	74.0	74.0	66	61.9	2	5	112	0.00	29.830 
19:10	74.0	74.0	74.0	66	61.9	1	3	45	0.00	29.830 
19:15	73.9	73.9	73.9	66	61.8	2	6	112	0.00	29.830 
19:20	73.9	73.9	73.9	66	61.8	1	6	112	0.00	29.830 
19:25	73.9	73.9	73.9	67	62.2	1	4	90	0.00	29.830 
19:30	73.9	73.9	73.9	67	62.2	1	6	90	0.00	29.834 
19:35	73.9	73.9	73.9	68	62.7	0	2	90	0.00	29.834 
19:40	73.7	73.7	73.7	67	62.0	1	3	90	0.00	29.834 
19:45	73.5	73.5	73.5	67	61.9	1	2	90	0.00	29.835 
19:50	73.3	73.3	73.3	68	62.1	0	2	90	0.00	29.835 
19:55	73.2	73.2	73.2	69	62.4	0	1	90	0.00	29.835 
20:00	73.0	73.0	73.0	68	61.8	1	4	90	0.00	29.848 
20:05	72.8	72.8	72.8	69	62.0	1	4	90	0.00	29.848 
20:10	72.8	72.8	72.8	70	62.4	0	4	90	0.00	29.848 
20:15	72.7	72.7	72.7	70	62.3	0	2	90	0.00	29.848 
20:20	72.5	72.5	72.5	71	62.5	0	1	90	0.00	29.848 
20:25	72.5	72.5	72.5	72	62.9	0	0	---	0.00	29.848 
20:30	72.3	72.3	72.3	73	63.1	0	2	90	0.00	29.848 
20:35	72.1	72.1	72.1	73	63.0	0	1	90	0.00	29.848 
20:40	72.0	72.0	72.0	74	63.2	0	2	90	0.00	29.848 
20:45	71.6	71.6	71.6	75	63.2	1	3	90	0.00	29.856 
20:50	71.5	71.5	71.5	76	63.5	0	3	90	0.00	29.856 
20:55	71.1	71.1	71.1	75	62.8	1	3	90	0.00	29.856 
21:00	70.9	70.9	70.9	75	62.6	1	3	90	0.00	29.861 
21:05	70.8	70.8	70.8	75	62.5	1	4	90	0.00	29.861 
21:10	70.6	70.6	70.6	75	62.3	1	3	90	0.00	29.861 
21:15	70.4	70.4	70.4	75	62.1	0	2	90	0.00	29.865 
21:20	70.3	70.3	70.3	75	62.0	0	1	90	0.00	29.865 
21:25	70.1	70.1	70.1	75	61.8	0	1	90	0.00	29.865 
21:30	69.9	69.9	69.9	76	62.0	0	1	90	0.00	29.868 
21:35	69.8	69.8	69.8	76	61.9	0	1	90	0.00	29.868 
21:40	69.6	69.6	69.6	76	61.7	0	0	---	0.00	29.868 
21:45	69.4	69.4	69.4	77	61.9	0	0	---	0.00	29.874 
21:50	69.4	69.4	69.4	77	61.9	0	1	90	0.00	29.874 
21:55	69.3	69.3	69.3	77	61.8	0	3	90	0.00	29.874 
22:00	69.3	69.3	69.3	77	61.8	0	3	90	0.00	29.874 
22:05	69.3	69.3	69.3	78	62.1	0	1	90	0.00	29.874 
22:10	69.3	69.3	69.3	78	62.1	0	1	90	0.00	29.874 
22:15	69.1	69.1	69.1	78	61.9	0	1	90	0.00	29.880 
22:20	68.9	68.9	68.9	79	62.1	0	0	---	0.00	29.880 
22:25	68.9	68.9	68.9	79	62.1	0	0	---	0.00	29.880 
22:30	68.8	68.8	68.8	80	62.4	0	0	---	0.00	29.882 
22:35	68.6	68.6	68.6	80	62.2	0	0	---	0.00	29.882 
22:40	68.6	68.6	68.6	81	62.5	0	0	---	0.00	29.882 
22:45	68.4	68.4	68.4	81	62.3	0	0	---	0.00	29.887 
22:50	68.3	68.3	68.3	82	62.6	0	0	---	0.00	29.887 
22:55	68.1	68.1	68.1	82	62.4	0	0	---	0.00	29.887 
23:00	68.1	68.1	68.1	82	62.4	0	0	---	0.00	29.886 
23:05	67.9	67.9	67.9	82	62.2	0	0	---	0.00	29.886 
23:10	67.8	67.8	67.8	82	62.1	0	0	---	0.00	29.886 
23:15	67.8	67.8	67.8	82	62.1	0	1	90	0.00	29.888 
23:20	67.8	67.8	67.8	82	62.1	0	0	---	0.00	29.888 
23:25	67.8	67.8	67.8	82	62.1	0	0	---	0.00	29.888 
23:30	67.8	67.8	67.8	82	62.1	0	2	90	0.00	29.893 
23:35	67.8	67.8	67.8	82	62.1	0	0	---	0.00	29.893 
23:40	67.8	67.8	67.8	82	62.1	0	2	90	0.00	29.893 
23:45	67.8	67.8	67.8	82	62.1	0	0	---	0.00	29.896 
23:50	67.8	67.8	67.8	82	62.1	0	1	90	0.00	29.896 
23:55	67.8	67.8	67.8	82	62.1	0	1	90	0.00	29.896 

CoCoRaHS
IN-AL-39
A2 Web Hosting
Creative Commons License
GoDaddy
search engine by freefind advanced

loaded 2018-11-13 02:24:06 • last modified 2010-11-18 10:43:29
Privacy PolicyDisclaimer
• wx.awcolley.com is powered by PmWiki v.2002016 •
• all content (unless otherwise noted) © 2018 A W Colley